createdAt,value
2018-10-16T00:01:11.796Z,138.47
2018-10-16T00:03:40.917Z,132.13
2018-10-16T00:06:11.374Z,109.03
2018-10-16T00:08:40.296Z,99.67
2018-10-16T00:11:10.862Z,106.17
2018-10-16T00:13:39.815Z,103.73
2018-10-16T00:16:08.671Z,164.03
2018-10-16T00:18:37.814Z,108.67
2018-10-16T00:21:07.869Z,162.57
2018-10-16T00:23:36.706Z,183.03
2018-10-16T00:26:05.890Z,197.43
2018-10-16T00:31:17.175Z,122.37
2018-10-16T00:33:46.026Z,227.03
2018-10-16T00:36:15.098Z,180.63
2018-10-16T00:38:44.366Z,163.40
2018-10-16T00:43:51.594Z,112.50
2018-10-16T00:46:20.304Z,166.80
2018-10-16T00:48:49.234Z,143.83
2018-10-16T00:51:18.366Z,213.83
2018-10-16T00:53:47.226Z,253.53
2018-10-16T00:56:16.047Z,145.77
2018-10-16T00:58:45.226Z,162.70
2018-10-16T01:01:18.671Z,186.80
2018-10-16T01:03:47.939Z,168.63
2018-10-16T01:06:18.022Z,160.90
2018-10-16T01:11:27.958Z,125.27
2018-10-16T01:13:59.524Z,123.67
2018-10-16T01:16:29.726Z,111.70
2018-10-16T01:18:58.983Z,128.20
2018-10-16T01:21:28.715Z,111.50
2018-10-16T01:23:57.931Z,149.70
2018-10-16T01:26:26.814Z,122.70
2018-10-16T01:28:55.698Z,205.30
2018-10-16T01:31:24.933Z,182.07
2018-10-16T01:33:53.919Z,120.43
2018-10-16T01:36:23.057Z,107.63
2018-10-16T01:38:52.007Z,132.20
2018-10-16T01:41:20.823Z,155.47
2018-10-16T01:43:49.603Z,154.47
2018-10-16T01:46:19.026Z,135.40
2018-10-16T01:48:47.978Z,125.47
2018-10-16T01:51:18.207Z,137.17
2018-10-16T01:53:47.174Z,134.53
2018-10-16T01:56:16.217Z,143.97
2018-10-16T01:58:45.280Z,158.87
2018-10-16T02:01:14.254Z,149.77
2018-10-16T02:03:43.853Z,146.13
2018-10-16T02:09:13.191Z,126.47
2018-10-16T02:11:42.266Z,132.93
2018-10-16T02:14:11.394Z,176.67
2018-10-16T02:16:40.070Z,176.97
2018-10-16T02:21:52.007Z,141.63
2018-10-16T02:24:21.747Z,118.57
2018-10-16T02:26:50.793Z,148.07
2018-10-16T02:29:20.610Z,138.10
2018-10-16T02:31:49.358Z,112.57
2018-10-16T02:34:18.913Z,135.07
2018-10-16T02:36:48.291Z,178.57
2018-10-16T02:39:17.830Z,105.87
2018-10-16T02:41:46.699Z,123.33
2018-10-16T02:44:16.415Z,131.60
2018-10-16T02:46:45.248Z,128.00
2018-10-16T02:49:14.637Z,129.93
2018-10-16T02:51:43.984Z,126.77
2018-10-16T02:54:14.040Z,145.37
2018-10-16T02:56:42.962Z,124.70
2018-10-16T02:59:14.288Z,159.17
2018-10-16T03:04:48.099Z,141.63
2018-10-16T03:07:17.776Z,154.17
2018-10-16T03:09:47.745Z,182.60
2018-10-16T03:12:17.700Z,173.00
2018-10-16T03:14:48.290Z,171.10
2018-10-16T03:17:18.662Z,181.27
2018-10-16T03:19:48.134Z,144.13
2018-10-16T03:22:18.076Z,135.70
2018-10-16T03:24:47.143Z,180.20
2018-10-16T03:27:15.913Z,132.70
2018-10-16T03:29:44.805Z,118.57
2018-10-16T03:32:13.951Z,239.77
2018-10-16T03:34:42.828Z,206.53
2018-10-16T03:37:11.771Z,127.10
2018-10-16T03:39:41.334Z,171.43
2018-10-16T03:42:10.065Z,157.20
2018-10-16T03:44:39.447Z,129.53
2018-10-16T03:47:08.490Z,113.90
2018-10-16T03:49:37.359Z,121.17
2018-10-16T03:52:06.225Z,112.53
2018-10-16T03:54:37.063Z,121.83
2018-10-16T03:57:05.974Z,103.37
2018-10-16T03:59:34.661Z,194.00
2018-10-16T04:02:03.675Z,114.90
2018-10-16T04:04:33.235Z,111.17
2018-10-16T04:07:02.271Z,123.10
2018-10-16T04:09:31.576Z,119.73
2018-10-16T04:12:00.674Z,149.13
2018-10-16T04:14:29.596Z,134.27
2018-10-16T04:16:59.927Z,151.23
2018-10-16T04:19:28.679Z,224.05
2018-10-16T04:21:58.528Z,104.77
2018-10-16T04:24:27.852Z,108.47
2018-10-16T04:26:56.742Z,121.27
2018-10-16T04:29:25.412Z,87.17
2018-10-16T04:31:54.525Z,92.97
2018-10-16T04:34:23.534Z,150.17
2018-10-16T04:36:52.533Z,105.57
2018-10-16T04:39:22.020Z,82.37
2018-10-16T04:41:50.883Z,100.33
2018-10-16T04:44:19.660Z,99.10
2018-10-16T04:46:49.288Z,86.17
2018-10-16T04:49:18.832Z,153.10
2018-10-16T04:51:47.734Z,93.73
2018-10-16T04:54:17.279Z,85.07
2018-10-16T04:56:46.283Z,111.93
2018-10-16T04:59:15.197Z,142.53
2018-10-16T05:01:44.275Z,80.90
2018-10-16T05:04:13.131Z,130.20
2018-10-16T05:06:41.955Z,92.30
2018-10-16T05:09:11.178Z,89.20
2018-10-16T05:11:50.835Z,76.07
2018-10-16T05:14:20.675Z,73.33
2018-10-16T05:16:49.718Z,87.90
2018-10-16T05:19:18.504Z,74.80
2018-10-16T05:21:49.379Z,115.37
2018-10-16T05:24:18.491Z,117.40
2018-10-16T05:26:47.318Z,83.30
2018-10-16T05:29:16.919Z,113.53
2018-10-16T05:31:45.772Z,109.50
2018-10-16T05:34:14.459Z,113.30
2018-10-16T05:36:43.881Z,131.07
2018-10-16T05:39:13.178Z,109.17
2018-10-16T05:41:41.979Z,98.20
2018-10-16T05:44:12.448Z,95.63
2018-10-16T05:46:41.498Z,132.07
2018-10-16T05:49:10.562Z,113.77
2018-10-16T05:51:39.810Z,114.30
2018-10-16T05:54:09.383Z,128.40
2018-10-16T05:56:38.332Z,101.30
2018-10-16T05:59:08.639Z,103.97
2018-10-16T06:01:37.931Z,109.57
2018-10-16T06:04:07.638Z,103.93
2018-10-16T06:06:36.853Z,101.40
2018-10-16T06:09:07.601Z,99.43
2018-10-16T06:11:36.383Z,88.33
2018-10-16T06:14:05.707Z,92.40
2018-10-16T06:16:34.677Z,91.43
2018-10-16T06:19:03.791Z,112.10
2018-10-16T06:21:33.136Z,82.27
2018-10-16T06:24:02.098Z,82.17
2018-10-16T06:26:31.000Z,89.47
2018-10-16T06:29:00.227Z,75.10
2018-10-16T06:31:29.416Z,80.20
2018-10-16T06:33:59.397Z,70.70
2018-10-16T06:36:30.372Z,63.17
2018-10-16T06:38:59.811Z,73.07
2018-10-16T06:41:28.574Z,65.73
2018-10-16T06:43:57.920Z,63.23
2018-10-16T06:46:27.400Z,65.20
2018-10-16T06:48:56.737Z,63.83
2018-10-16T06:51:25.888Z,57.93
2018-10-16T06:53:54.831Z,64.67
2018-10-16T06:56:23.925Z,66.80
2018-10-16T06:58:53.373Z,54.50
2018-10-16T07:01:22.232Z,59.90
2018-10-16T07:03:51.740Z,57.33
2018-10-16T07:06:21.151Z,61.97
2018-10-16T07:08:50.447Z,60.93
2018-10-16T07:11:19.862Z,60.10
2018-10-16T07:13:49.370Z,61.53
2018-10-16T07:16:19.407Z,63.43
2018-10-16T07:18:48.635Z,58.03
2018-10-16T07:23:37.810Z,46.00
2018-10-16T07:26:06.756Z,43.03
2018-10-16T07:28:36.747Z,41.67
2018-10-16T07:31:06.836Z,39.50
2018-10-16T07:33:35.768Z,36.33
2018-10-16T07:36:04.995Z,38.37
2018-10-16T07:38:34.234Z,33.33
2018-10-16T07:41:03.351Z,33.90
2018-10-16T07:43:33.111Z,35.97
2018-10-16T07:46:03.200Z,33.80
2018-10-16T07:48:37.041Z,32.70
2018-10-16T07:51:06.721Z,33.97
2018-10-16T07:53:35.448Z,33.43
2018-10-16T07:56:04.512Z,33.47
2018-10-16T07:58:33.971Z,32.13
2018-10-16T08:01:02.952Z,34.27
2018-10-16T08:03:31.993Z,35.63
2018-10-16T08:06:01.605Z,33.30
2018-10-16T08:08:30.384Z,34.70
2018-10-16T08:10:59.436Z,35.40
2018-10-16T08:13:29.262Z,34.13
2018-10-16T08:15:59.415Z,30.30
2018-10-16T08:18:28.516Z,32.37
2018-10-16T08:20:58.932Z,31.27
2018-10-16T08:23:29.251Z,30.20
2018-10-16T08:25:58.099Z,29.83
2018-10-16T08:28:28.364Z,28.17
2018-10-16T08:30:59.510Z,30.23
2018-10-16T08:33:29.543Z,27.73
2018-10-16T08:35:59.077Z,29.07
2018-10-16T08:38:37.796Z,31.63
2018-10-16T08:41:08.427Z,30.90
2018-10-16T08:43:50.262Z,29.23
2018-10-16T08:46:30.274Z,31.10
2018-10-16T08:50:10.693Z,31.20
2018-10-16T08:52:40.348Z,29.20
2018-10-16T08:55:09.116Z,30.23
2018-10-16T08:57:39.216Z,33.07
2018-10-16T09:00:07.914Z,29.67
2018-10-16T09:02:36.567Z,29.70
2018-10-16T09:05:07.427Z,28.90
2018-10-16T09:07:36.327Z,28.13
2018-10-16T09:10:05.123Z,31.90
2018-10-16T09:12:34.103Z,31.07
2018-10-16T09:15:02.687Z,31.97
2018-10-16T09:17:31.327Z,35.37
2018-10-16T09:20:00.496Z,37.40
2018-10-16T09:22:29.990Z,35.43
2018-10-16T09:24:58.666Z,35.53
2018-10-16T09:27:27.608Z,32.63
2018-10-16T09:29:56.226Z,30.73
2018-10-16T09:32:24.928Z,30.90
2018-10-16T09:34:53.842Z,32.37
2018-10-16T09:37:22.496Z,35.33
2018-10-16T09:39:51.487Z,33.50
2018-10-16T09:42:20.532Z,30.77
2018-10-16T09:44:49.174Z,30.10
2018-10-16T09:47:17.942Z,31.77
2018-10-16T09:49:47.099Z,28.83
2018-10-16T09:52:15.655Z,29.97
2018-10-16T09:54:44.298Z,28.00
2018-10-16T09:57:13.489Z,29.33
2018-10-16T09:59:42.071Z,28.17
2018-10-16T10:02:11.584Z,31.47
2018-10-16T10:04:40.479Z,28.53
2018-10-16T10:07:09.003Z,28.70
2018-10-16T10:09:37.519Z,27.27
2018-10-16T10:12:06.587Z,31.10
2018-10-16T10:14:35.399Z,29.03
2018-10-16T10:17:04.093Z,31.77
2018-10-16T10:19:32.915Z,30.37
2018-10-16T10:22:01.605Z,31.87
2018-10-16T10:24:30.223Z,33.60
2018-10-16T10:26:59.434Z,27.83
2018-10-16T10:29:28.077Z,32.83
2018-10-16T10:31:57.020Z,30.10
2018-10-16T10:34:25.891Z,31.63
2018-10-16T10:36:54.608Z,31.40
2018-10-16T10:39:24.136Z,33.57
2018-10-16T10:41:53.058Z,32.20
2018-10-16T10:44:22.455Z,33.03
2018-10-16T10:46:51.092Z,34.50
2018-10-16T10:49:20.509Z,35.47
2018-10-16T10:51:49.179Z,32.00
2018-10-16T10:54:17.795Z,33.40
2018-10-16T10:56:47.111Z,35.07
2018-10-16T10:59:15.635Z,32.93
2018-10-16T11:01:44.251Z,34.87
2018-10-16T11:04:13.514Z,31.40
2018-10-16T11:06:42.219Z,31.50
2018-10-16T11:09:12.720Z,30.67
2018-10-16T11:11:46.191Z,28.90
2018-10-16T11:14:14.866Z,32.23
2018-10-16T11:16:43.915Z,31.20
2018-10-16T11:19:13.445Z,33.63
2018-10-16T11:21:42.439Z,31.03
2018-10-16T11:24:11.591Z,31.93
2018-10-16T11:26:40.670Z,31.67
2018-10-16T11:29:09.514Z,33.07
2018-10-16T11:31:40.084Z,35.60
2018-10-16T11:34:09.299Z,32.27
2018-10-16T11:36:38.436Z,31.53
2018-10-16T11:39:09.896Z,33.53
2018-10-16T11:41:39.563Z,30.70
2018-10-16T11:44:10.683Z,29.70
2018-10-16T11:46:39.793Z,29.47
2018-10-16T11:49:09.426Z,32.17
2018-10-16T11:51:38.526Z,30.43
2018-10-16T11:54:08.565Z,29.27
2018-10-16T11:56:38.047Z,31.57
2018-10-16T11:59:08.212Z,29.77
2018-10-16T12:01:37.904Z,27.90
2018-10-16T12:04:07.180Z,30.77
2018-10-16T12:06:36.128Z,37.17
2018-10-16T12:09:08.643Z,29.67
2018-10-16T12:11:38.888Z,32.47
2018-10-16T12:14:08.323Z,31.63
2018-10-16T12:16:41.564Z,30.30
2018-10-16T12:19:15.467Z,27.13
2018-10-16T12:21:45.851Z,30.73
2018-10-16T12:24:15.128Z,31.37
2018-10-16T12:29:23.842Z,31.47
2018-10-16T12:31:52.760Z,31.57
2018-10-16T12:34:21.450Z,32.53
2018-10-16T12:36:50.549Z,32.17
2018-10-16T12:39:19.912Z,32.07
2018-10-16T12:41:48.902Z,32.50
2018-10-16T12:44:17.971Z,28.40
2018-10-16T12:46:46.777Z,28.60
2018-10-16T12:49:15.560Z,33.70
2018-10-16T12:51:44.418Z,30.67
2018-10-16T12:54:13.225Z,35.10
2018-10-16T12:56:41.967Z,39.00
2018-10-16T12:59:11.025Z,41.73
2018-10-16T13:01:39.780Z,37.47
2018-10-16T13:04:08.370Z,46.47
2018-10-16T13:06:37.197Z,41.33
2018-10-16T13:09:09.053Z,44.33
2018-10-16T13:11:37.547Z,42.90
2018-10-16T13:14:06.946Z,42.50
2018-10-16T13:16:35.595Z,39.93
2018-10-16T13:19:04.509Z,38.30
2018-10-16T13:21:33.483Z,35.90
2018-10-16T13:24:02.296Z,34.43
2018-10-16T13:26:31.262Z,36.33
2018-10-16T13:29:00.378Z,35.80
2018-10-16T13:31:29.250Z,38.20
2018-10-16T13:33:57.883Z,35.43
2018-10-16T13:36:27.054Z,37.20
2018-10-16T13:38:55.659Z,33.83
2018-10-16T13:41:24.283Z,32.47
2018-10-16T13:43:53.346Z,30.87
2018-10-16T13:46:22.051Z,30.13
2018-10-16T13:48:50.708Z,31.10
2018-10-16T13:51:19.815Z,30.67
2018-10-16T13:53:48.471Z,31.07
2018-10-16T13:56:17.089Z,31.70
2018-10-16T13:58:46.059Z,32.60
2018-10-16T14:01:14.706Z,29.23
2018-10-16T14:03:43.295Z,30.30
2018-10-16T14:06:12.394Z,33.50
2018-10-16T14:08:41.263Z,31.63
2018-10-16T14:11:09.974Z,30.20
2018-10-16T14:13:39.070Z,32.43
2018-10-16T14:16:07.751Z,33.23
2018-10-16T14:18:36.219Z,30.90
2018-10-16T14:21:05.726Z,34.30
2018-10-16T14:23:34.638Z,35.83
2018-10-16T14:26:03.414Z,32.37
2018-10-16T14:28:32.373Z,29.60
2018-10-16T14:31:01.107Z,33.67
2018-10-16T14:33:29.825Z,32.33
2018-10-16T14:35:58.771Z,29.10
2018-10-16T14:38:27.589Z,32.60
2018-10-16T14:40:56.160Z,32.23
2018-10-16T14:43:25.114Z,32.20
2018-10-16T14:45:53.756Z,34.30
2018-10-16T14:48:22.339Z,31.37
2018-10-16T14:50:51.613Z,27.97
2018-10-16T14:53:20.242Z,34.30
2018-10-16T14:55:48.960Z,29.90
2018-10-16T14:58:17.723Z,31.17
2018-10-16T15:00:47.202Z,31.73
2018-10-16T15:03:15.818Z,32.33
2018-10-16T15:05:44.476Z,31.73
2018-10-16T15:08:13.153Z,32.60
2018-10-16T15:10:41.891Z,31.23
2018-10-16T15:13:10.959Z,32.20
2018-10-16T15:15:39.676Z,31.83
2018-10-16T15:18:08.430Z,34.13
2018-10-16T15:20:37.369Z,34.53
2018-10-16T15:23:06.334Z,35.80
2018-10-16T15:25:35.281Z,29.37
2018-10-16T15:28:04.780Z,36.10
2018-10-16T15:30:34.367Z,32.00
2018-10-16T15:33:04.159Z,32.63
2018-10-16T15:35:32.966Z,38.40
2018-10-16T15:38:01.575Z,34.73
2018-10-16T15:40:30.247Z,33.63
2018-10-16T15:43:00.199Z,34.23
2018-10-16T15:45:28.787Z,36.93
2018-10-16T15:47:57.639Z,35.47
2018-10-16T15:50:26.606Z,34.87
2018-10-16T15:52:55.595Z,35.37
2018-10-16T15:55:24.245Z,34.63
2018-10-16T15:57:53.356Z,35.83
2018-10-16T16:00:22.228Z,33.43
2018-10-16T16:02:50.869Z,35.50
2018-10-16T16:05:20.009Z,33.00
2018-10-16T16:07:48.645Z,34.13
2018-10-16T16:10:17.351Z,36.30
2018-10-16T16:12:46.383Z,38.30
2018-10-16T16:15:15.164Z,33.50
2018-10-16T16:20:22.340Z,35.07
2018-10-16T16:22:51.174Z,37.13
2018-10-16T16:25:21.570Z,37.80
2018-10-16T16:27:50.869Z,36.77
2018-10-16T16:30:20.025Z,34.67
2018-10-16T16:32:48.792Z,32.80
2018-10-16T16:35:18.003Z,37.23
2018-10-16T16:37:46.803Z,36.83
2018-10-16T16:40:16.519Z,36.37
2018-10-16T16:42:46.563Z,38.20
2018-10-16T16:45:15.292Z,38.47
2018-10-16T16:47:44.906Z,36.47
2018-10-16T16:50:13.959Z,33.70
2018-10-16T16:52:43.424Z,38.40
2018-10-16T16:55:13.671Z,41.63
2018-10-16T16:57:43.795Z,39.70
2018-10-16T17:00:14.132Z,37.80
2018-10-16T17:02:45.177Z,38.93
2018-10-16T17:05:14.959Z,39.93
2018-10-16T17:07:45.013Z,38.87
2018-10-16T17:10:14.080Z,40.30
2018-10-16T17:12:44.552Z,43.87
2018-10-16T17:15:16.193Z,40.67
2018-10-16T17:17:45.910Z,40.23
2018-10-16T17:20:14.993Z,41.03
2018-10-16T17:22:44.774Z,39.87
2018-10-16T17:25:14.883Z,35.03
2018-10-16T17:27:45.627Z,37.40
2018-10-16T17:30:16.594Z,40.07
2018-10-16T17:32:46.294Z,37.83
2018-10-16T17:35:16.032Z,39.30
2018-10-16T17:37:46.385Z,40.37
2018-10-16T17:40:16.708Z,43.80
2018-10-16T17:42:45.971Z,39.70
2018-10-16T17:45:16.080Z,39.27
2018-10-16T17:47:46.528Z,42.67
2018-10-16T17:50:17.399Z,43.17
2018-10-16T17:52:46.582Z,43.37
2018-10-16T17:55:16.556Z,47.13
2018-10-16T17:57:46.148Z,46.73
2018-10-16T18:00:16.487Z,43.17
2018-10-16T18:02:46.582Z,48.10
2018-10-16T18:05:16.043Z,45.10
2018-10-16T18:07:45.899Z,47.03
2018-10-16T18:10:15.577Z,51.40
2018-10-16T18:12:46.209Z,45.57
2018-10-16T18:15:15.864Z,49.70
2018-10-16T18:17:45.903Z,50.23
2018-10-16T18:20:15.945Z,49.50
2018-10-16T18:22:46.067Z,53.60
2018-10-16T18:25:15.300Z,48.60
2018-10-16T18:27:46.863Z,51.57
2018-10-16T18:30:16.467Z,56.33
2018-10-16T18:32:47.106Z,56.13
2018-10-16T18:38:01.377Z,57.73
2018-10-16T18:40:30.313Z,60.13
2018-10-16T18:42:59.969Z,62.80
2018-10-16T18:45:29.460Z,56.20
2018-10-16T18:47:58.683Z,59.58
2018-10-16T18:50:27.711Z,54.60
2018-10-16T18:52:56.612Z,49.50
2018-10-16T18:55:25.483Z,53.80
2018-10-16T18:57:54.662Z,53.63
2018-10-16T19:00:23.776Z,51.87
2018-10-16T19:02:52.855Z,48.97
2018-10-16T19:05:22.517Z,51.93
2018-10-16T19:10:28.698Z,57.43
2018-10-16T19:12:57.583Z,49.57
2018-10-16T19:15:26.576Z,53.40
2018-10-16T19:17:55.928Z,54.70
2018-10-16T19:20:25.635Z,51.53
2018-10-16T19:22:54.571Z,50.73
2018-10-16T19:25:24.940Z,55.67
2018-10-16T19:27:55.388Z,51.57
2018-10-16T19:30:24.798Z,54.77
2018-10-16T19:32:53.861Z,59.70
2018-10-16T19:35:22.952Z,59.37
2018-10-16T19:37:55.304Z,60.53
2018-10-16T19:40:25.196Z,58.87
2018-10-16T19:42:54.644Z,57.10
2018-10-16T19:45:24.081Z,58.23
2018-10-16T19:47:53.371Z,60.33
2018-10-16T19:50:22.928Z,57.00
2018-10-16T19:52:53.096Z,60.87
2018-10-16T19:55:21.905Z,67.10
2018-10-16T19:57:51.600Z,63.80
2018-10-16T20:00:21.119Z,65.90
2018-10-16T20:02:50.440Z,62.03
2018-10-16T20:05:19.375Z,66.70
2018-10-16T20:07:48.726Z,62.87
2018-10-16T20:10:17.783Z,71.93
2018-10-16T20:12:46.556Z,65.43
2018-10-16T20:15:16.172Z,64.87
2018-10-16T20:17:45.915Z,62.57
2018-10-16T20:20:14.836Z,60.93
2018-10-16T20:22:44.794Z,70.80
2018-10-16T20:25:13.604Z,62.83
2018-10-16T20:27:42.565Z,59.43
2018-10-16T20:30:12.514Z,60.37
2018-10-16T20:32:42.199Z,71.03
2018-10-16T20:35:12.172Z,61.63
2018-10-16T20:37:42.471Z,68.10
2018-10-16T20:40:11.391Z,69.20
2018-10-16T20:42:40.786Z,65.23
2018-10-16T20:45:11.058Z,74.83
2018-10-16T20:47:40.116Z,79.77
2018-10-16T20:50:09.536Z,79.90
2018-10-16T20:52:39.284Z,64.00
2018-10-16T20:55:08.403Z,70.83
2018-10-16T20:57:38.417Z,67.37
2018-10-16T21:00:08.265Z,69.03
2018-10-16T21:02:37.761Z,66.57
2018-10-16T21:05:08.118Z,62.57
2018-10-16T21:07:37.413Z,69.03
2018-10-16T21:10:07.461Z,67.10
2018-10-16T21:12:36.493Z,65.43
2018-10-16T21:15:06.263Z,61.93
2018-10-16T21:17:35.086Z,56.30
2018-10-16T21:20:03.877Z,57.80
2018-10-16T21:22:33.783Z,58.43
2018-10-16T21:25:02.725Z,54.33
2018-10-16T21:27:32.831Z,56.97
2018-10-16T21:30:03.051Z,55.27
2018-10-16T21:32:31.987Z,53.70
2018-10-16T21:35:00.991Z,54.27
2018-10-16T21:37:30.898Z,55.50
2018-10-16T21:40:00.492Z,55.87
2018-10-16T21:42:29.707Z,53.23
2018-10-16T21:44:59.025Z,49.67
2018-10-16T21:47:28.259Z,53.77
2018-10-16T21:49:58.910Z,48.47
2018-10-16T21:52:27.851Z,53.07
2018-10-16T21:54:57.024Z,53.30
2018-10-16T21:57:30.388Z,53.33
2018-10-16T21:59:59.380Z,52.03
2018-10-16T22:02:34.736Z,44.80
2018-10-16T22:05:04.889Z,47.70
2018-10-16T22:10:11.426Z,53.70
2018-10-16T22:12:41.824Z,53.20
2018-10-16T22:15:10.901Z,38.40
2018-10-16T22:17:40.297Z,43.87
2018-10-16T22:20:10.870Z,43.30
2018-10-16T22:22:40.512Z,49.47
2018-10-16T22:25:11.286Z,49.70
2018-10-16T22:27:40.326Z,44.87
2018-10-16T22:30:09.799Z,41.57
2018-10-16T22:32:39.339Z,44.00
2018-10-16T22:35:10.476Z,51.17
2018-10-16T22:37:39.759Z,51.10
2018-10-16T22:40:09.997Z,62.60
2018-10-16T22:42:38.770Z,63.63
2018-10-16T22:45:08.451Z,72.00
2018-10-16T22:47:37.833Z,52.37
2018-10-16T22:50:10.370Z,57.03
2018-10-16T22:52:40.197Z,74.30
2018-10-16T22:55:09.529Z,65.73
2018-10-16T22:57:39.770Z,63.90
2018-10-16T23:00:15.147Z,70.40
2018-10-16T23:02:44.881Z,74.10
2018-10-16T23:05:14.388Z,72.43
2018-10-16T23:07:44.375Z,74.97
2018-10-16T23:10:15.554Z,74.77
2018-10-16T23:12:45.456Z,80.23
2018-10-16T23:15:15.674Z,78.70
2018-10-16T23:17:44.483Z,77.03
2018-10-16T23:20:13.933Z,79.40
2018-10-16T23:22:43.206Z,96.93
2018-10-16T23:25:12.061Z,83.50
2018-10-16T23:27:41.959Z,74.00
2018-10-16T23:30:10.941Z,77.83
2018-10-16T23:32:40.820Z,81.33
2018-10-16T23:35:11.419Z,81.73
2018-10-16T23:37:41.065Z,82.07
2018-10-16T23:40:10.084Z,87.03
2018-10-16T23:42:39.255Z,76.40
2018-10-16T23:45:08.461Z,74.63
2018-10-16T23:47:43.065Z,66.63
2018-10-16T23:50:11.947Z,68.30
2018-10-16T23:52:41.763Z,75.73
2018-10-16T23:55:11.378Z,72.30
2018-10-16T23:57:40.382Z,79.30
